createdAt,value
2023-01-21T00:00:44.785Z,102569.78
2023-01-21T00:13:21.450Z,102581.06
2023-01-21T00:16:29.512Z,102613.28
2023-01-21T00:29:27.665Z,102609.78
2023-01-21T00:46:30.858Z,102634.19
2023-01-21T00:58:44.028Z,102654.19
2023-01-21T01:05:30.174Z,102669.00
2023-01-21T01:12:03.089Z,102686.41
2023-01-21T01:14:30.191Z,102664.63
2023-01-21T01:17:43.613Z,102691.63
2023-01-21T01:34:07.366Z,102698.56
2023-01-21T01:36:43.017Z,102728.19
2023-01-21T01:39:43.543Z,102697.72
2023-01-21T01:42:29.342Z,102746.50
2023-01-21T01:59:09.185Z,102755.22
2023-01-21T02:05:19.427Z,102729.91
2023-01-21T02:08:39.284Z,102761.31
2023-01-21T02:11:30.674Z,102765.69
2023-01-21T02:14:36.181Z,102761.31
2023-01-21T02:21:15.203Z,102770.00
2023-01-21T02:27:37.332Z,102758.63
2023-01-21T02:42:29.300Z,102776.88
2023-01-21T02:49:20.329Z,102776.81
2023-01-21T03:03:35.338Z,102804.69
2023-01-21T03:21:03.563Z,102824.59
2023-01-21T03:51:39.440Z,102848.94
2023-01-21T03:54:25.698Z,102849.81
2023-01-21T04:11:25.913Z,102870.72
2023-01-21T04:23:30.399Z,102848.16
2023-01-21T05:20:33.438Z,102906.03
2023-01-21T05:30:28.309Z,102894.69
2023-01-21T05:33:28.277Z,102895.56
2023-01-21T05:39:48.875Z,102897.28
2023-01-21T05:42:27.053Z,102904.28
2023-01-21T05:47:49.608Z,102935.72
2023-01-21T05:50:34.208Z,102940.06
2023-01-21T06:06:30.603Z,102957.50
2023-01-21T06:09:17.321Z,102950.53
2023-01-21T06:11:57.213Z,102965.34
2023-01-21T06:14:44.355Z,102971.47
2023-01-21T06:20:19.622Z,102957.47
2023-01-21T06:22:58.712Z,102967.94
2023-01-21T06:25:52.369Z,102973.13
2023-01-21T06:28:34.951Z,102966.19
2023-01-21T06:31:26.441Z,102992.34
2023-01-21T06:34:33.268Z,102965.25
2023-01-21T06:45:30.622Z,102995.78
2023-01-21T06:48:01.468Z,102988.78
2023-01-21T06:53:22.082Z,102983.50
2023-01-21T07:02:15.000Z,103015.75
2023-01-21T07:05:18.295Z,102997.41
2023-01-21T07:10:40.762Z,102992.13
2023-01-21T07:19:16.470Z,103029.72
2023-01-21T07:21:48.701Z,103039.34
2023-01-21T07:24:22.441Z,103042.00
2023-01-21T07:26:49.631Z,103048.13
2023-01-21T07:29:37.344Z,103052.47
2023-01-21T07:32:10.996Z,103049.88
2023-01-21T07:34:44.384Z,103060.34
2023-01-21T07:37:16.717Z,103068.19
2023-01-21T07:39:50.185Z,103061.25
2023-01-21T07:42:17.220Z,103070.84
2023-01-21T07:44:54.538Z,103072.59
2023-01-21T07:47:25.877Z,103073.47
2023-01-21T07:50:18.430Z,103079.63
2023-01-21T07:52:58.083Z,103087.44
2023-01-21T07:55:42.994Z,103060.34
2023-01-21T07:58:19.871Z,103097.06
2023-01-21T08:01:05.583Z,103105.78
2023-01-21T08:03:52.391Z,103093.56
2023-01-21T08:06:29.825Z,103101.41
2023-01-21T08:09:08.776Z,103104.94
2023-01-21T08:11:59.017Z,103116.31
2023-01-21T08:14:29.611Z,103120.66
2023-01-21T08:17:08.634Z,103123.31
2023-01-21T08:19:35.693Z,103123.31
2023-01-21T08:22:25.686Z,103120.69
2023-01-21T08:25:24.727Z,103128.56
2023-01-21T08:27:58.828Z,103119.84
2023-01-21T08:30:32.492Z,103094.50
2023-01-21T08:36:09.154Z,103127.75
2023-01-21T08:42:26.201Z,103123.41
2023-01-21T08:54:00.479Z,103117.31
2023-01-21T08:56:34.165Z,103107.69
2023-01-21T08:59:03.004Z,103112.06
2023-01-21T09:01:36.283Z,103119.97
2023-01-21T09:04:03.604Z,103124.31
2023-01-21T09:06:44.184Z,103120.84
2023-01-21T09:09:12.036Z,103148.81
2023-01-21T09:11:46.314Z,103134.81
2023-01-21T09:14:13.599Z,103138.31
2023-01-21T09:16:47.257Z,103140.06
2023-01-21T09:22:06.730Z,103153.19
2023-01-21T09:27:27.412Z,103150.59
2023-01-21T09:30:26.233Z,103176.81
2023-01-21T09:32:53.351Z,103153.19
2023-01-21T09:35:27.288Z,103149.69
2023-01-21T09:38:01.172Z,103190.78
2023-01-21T09:40:28.311Z,103168.94
2023-01-21T09:43:02.321Z,103161.94
2023-01-21T09:45:32.229Z,103172.41
2023-01-21T09:48:12.192Z,103187.28
2023-01-21T09:50:41.818Z,103172.44
2023-01-21T09:53:33.203Z,103191.66
2023-01-21T09:56:02.592Z,103203.03
2023-01-21T10:02:09.269Z,103215.28
2023-01-21T10:04:55.153Z,103190.78
2023-01-21T10:07:38.746Z,103196.91
2023-01-21T10:10:33.218Z,103181.16
2023-01-21T10:13:35.389Z,103188.16
2023-01-21T10:22:34.244Z,103196.91
2023-01-21T10:25:22.161Z,103190.75
2023-01-21T10:27:49.428Z,103200.41
2023-01-21T10:31:06.251Z,103189.00
2023-01-21T10:33:42.215Z,103195.09
2023-01-21T10:36:32.560Z,103189.00
2023-01-21T10:39:06.603Z,103198.59
2023-01-21T10:42:11.235Z,103220.41
2023-01-21T10:45:01.644Z,103192.38
2023-01-21T10:48:17.287Z,103185.34
2023-01-21T10:54:21.530Z,103219.28
2023-01-21T11:00:38.762Z,103217.53
2023-01-21T11:03:15.346Z,103197.44
2023-01-21T11:05:50.269Z,103195.72
2023-01-21T11:08:23.052Z,103193.13
2023-01-21T11:11:03.196Z,103181.78
2023-01-21T11:13:30.480Z,103186.13
2023-01-21T11:16:06.392Z,103191.38
2023-01-21T11:18:40.145Z,103186.13
2023-01-21T11:21:30.243Z,103187.00
2023-01-21T11:24:08.980Z,103199.22
2023-01-21T11:26:43.232Z,103188.75
2023-01-21T11:29:33.269Z,103188.75
2023-01-21T11:32:22.628Z,103206.22
2023-01-21T11:34:59.879Z,103200.16
2023-01-21T11:40:25.556Z,103219.34
2023-01-21T11:43:03.242Z,103195.75
2023-01-21T11:45:37.660Z,103188.75
2023-01-21T11:48:28.239Z,103221.09
2023-01-21T11:51:20.318Z,103179.13
2023-01-21T11:53:54.326Z,103193.97
2023-01-21T11:56:21.472Z,103220.19
2023-01-21T11:58:55.226Z,103182.59
2023-01-21T12:01:25.761Z,103193.97
2023-01-21T12:04:09.288Z,103199.22
2023-01-21T12:06:37.759Z,103192.22
2023-01-21T12:09:08.817Z,103180.78
2023-01-21T12:11:42.242Z,103211.31
2023-01-21T12:14:30.959Z,103220.88
2023-01-21T12:20:03.260Z,103181.50
2023-01-21T12:22:42.404Z,103208.53
2023-01-21T12:25:21.540Z,103193.72
2023-01-21T12:28:14.448Z,103170.94
2023-01-21T12:38:41.297Z,103196.91
2023-01-21T12:41:29.180Z,103163.66
2023-01-21T12:44:33.311Z,103151.31
2023-01-21T12:47:19.616Z,103162.59
2023-01-21T12:50:16.340Z,103173.06
2023-01-21T12:59:59.428Z,103189.63
2023-01-21T13:09:34.748Z,103183.53
2023-01-21T13:12:47.273Z,103178.31
2023-01-21T13:15:22.274Z,103160.94
2023-01-21T13:27:32.049Z,103175.78
2023-01-21T13:30:27.396Z,103197.66
2023-01-21T13:37:15.445Z,103208.25
2023-01-21T13:40:23.626Z,103205.66
2023-01-21T13:43:45.761Z,103169.00
2023-01-21T13:47:06.850Z,103194.31
2023-01-21T13:49:47.645Z,103208.31
2023-01-21T13:52:26.305Z,103185.63
2023-01-21T14:06:27.384Z,103219.88
2023-01-21T14:26:17.413Z,103195.53
2023-01-21T14:29:04.697Z,103213.88
2023-01-21T14:42:03.357Z,103220.06
2023-01-21T14:57:25.153Z,103242.81
2023-01-21T15:05:45.141Z,103228.97
2023-01-21T15:11:15.759Z,103214.16
2023-01-21T15:16:42.391Z,103253.59
2023-01-21T15:19:17.004Z,103259.75
2023-01-21T15:29:24.647Z,103258.91
2023-01-21T15:32:07.537Z,103226.56
2023-01-21T15:34:42.722Z,103249.28
2023-01-21T15:37:44.362Z,103254.53
2023-01-21T15:44:03.459Z,103273.81
2023-01-21T15:47:07.920Z,103291.31
2023-01-21T15:57:00.598Z,103273.81
2023-01-21T15:59:46.802Z,103280.81
2023-01-21T16:19:00.456Z,103268.56
2023-01-21T16:21:41.712Z,103271.22
2023-01-21T16:24:24.730Z,103286.00
2023-01-21T16:26:52.064Z,103246.59
2023-01-21T16:42:51.893Z,103296.56
2023-01-21T16:45:28.472Z,103258.97
2023-01-21T16:48:00.958Z,103261.56
2023-01-21T16:50:37.517Z,103270.25
2023-01-21T16:55:57.575Z,103292.91
2023-01-21T16:58:34.207Z,103297.25
2023-01-21T17:04:55.645Z,103296.25
2023-01-21T17:07:35.643Z,103272.59
2023-01-21T17:14:15.412Z,103303.13
2023-01-21T17:16:44.416Z,103268.91
2023-01-21T17:19:34.369Z,103285.56
2023-01-21T17:22:13.870Z,103263.66
2023-01-21T17:25:29.392Z,103305.66
2023-01-21T17:28:03.517Z,103264.47
2023-01-21T17:30:42.836Z,103310.00
2023-01-21T17:33:28.020Z,103289.84
2023-01-21T17:36:31.493Z,103303.03
2023-01-21T17:39:07.171Z,103278.53
2023-01-21T17:44:21.160Z,103271.56
2023-01-21T17:52:29.700Z,103280.25
2023-01-21T17:55:14.282Z,103275.03
2023-01-21T17:57:49.208Z,103279.41
2023-01-21T18:06:34.475Z,103311.88
2023-01-21T18:09:03.796Z,103266.41
2023-01-21T18:14:23.471Z,103312.81
2023-01-21T18:19:42.765Z,103302.28
2023-01-21T18:22:22.911Z,103286.50
2023-01-21T18:27:40.818Z,103290.88
2023-01-21T18:31:06.582Z,103313.59
2023-01-21T18:33:34.279Z,103303.94
2023-01-21T18:36:18.712Z,103291.69
2023-01-21T18:38:47.324Z,103296.06
2023-01-21T18:41:16.349Z,103285.56
2023-01-21T18:46:58.431Z,103324.06
2023-01-21T18:49:33.173Z,103289.00
2023-01-21T18:54:49.362Z,103307.31
2023-01-21T18:57:28.820Z,103280.16
2023-01-21T19:00:03.841Z,103281.84
2023-01-21T19:02:40.006Z,103275.69
2023-01-21T19:07:58.256Z,103279.06
2023-01-21T19:13:10.545Z,103276.50
2023-01-21T19:15:50.130Z,103281.69
2023-01-21T19:18:24.619Z,103279.03
2023-01-21T19:21:00.012Z,103283.38
2023-01-21T19:32:36.088Z,103275.53
2023-01-21T19:35:17.268Z,103279.06
2023-01-21T19:37:53.138Z,103272.91
2023-01-21T19:40:33.749Z,103288.69
2023-01-21T19:49:34.139Z,103303.56
2023-01-21T19:54:53.352Z,103292.94
2023-01-21T19:57:37.556Z,103309.63
2023-01-21T20:06:22.502Z,103264.06
2023-01-21T20:09:01.036Z,103266.63
2023-01-21T20:11:29.605Z,103314.75
2023-01-21T20:14:13.029Z,103277.88
2023-01-21T20:16:47.108Z,103276.16
2023-01-21T20:22:17.783Z,103278.75
2023-01-21T20:30:34.361Z,103311.03
2023-01-21T20:36:49.721Z,103273.41
2023-01-21T20:39:20.327Z,103278.66
2023-01-21T20:44:35.860Z,103284.75
2023-01-21T20:47:27.587Z,103286.53
2023-01-21T20:57:32.539Z,103290.03
2023-01-21T21:03:45.900Z,103271.63
2023-01-21T21:06:41.937Z,103269.00
2023-01-21T21:22:33.341Z,103309.13
2023-01-21T21:25:07.310Z,103284.59
2023-01-21T21:27:38.984Z,103264.38
2023-01-21T21:32:54.620Z,103278.53
2023-01-21T21:35:37.820Z,103259.28
2023-01-21T21:42:01.955Z,103270.66
2023-01-21T21:45:29.490Z,103305.69
2023-01-21T21:54:16.984Z,103298.69
2023-01-21T22:12:40.592Z,103313.63
2023-01-21T22:15:08.572Z,103275.13
2023-01-21T22:17:43.503Z,103286.47
2023-01-21T22:20:13.772Z,103268.03
2023-01-21T22:22:47.742Z,103276.78
2023-01-21T22:25:19.972Z,103260.16
2023-01-21T22:30:36.270Z,103272.41
2023-01-21T22:33:44.428Z,103299.59
2023-01-21T22:36:40.587Z,103275.94
2023-01-21T22:39:14.098Z,103266.28
2023-01-21T22:44:55.326Z,103275.06
2023-01-21T22:47:31.605Z,103268.09
2023-01-21T22:50:05.624Z,103252.34
2023-01-21T22:52:39.576Z,103270.66
2023-01-21T22:55:10.069Z,103265.41
2023-01-21T22:57:43.762Z,103290.81
2023-01-21T23:00:16.334Z,103246.09
2023-01-21T23:02:43.386Z,103250.41
2023-01-21T23:05:22.560Z,103256.56
2023-01-21T23:07:56.533Z,103253.91
2023-01-21T23:10:30.636Z,103261.75
2023-01-21T23:12:57.583Z,103293.25
2023-01-21T23:18:20.495Z,103255.69
2023-01-21T23:20:53.484Z,103269.72
2023-01-21T23:23:20.634Z,103265.50
2023-01-21T23:25:57.485Z,103254.22
2023-01-21T23:34:05.030Z,103256.19
2023-01-21T23:36:38.626Z,103246.59
2023-01-21T23:39:14.158Z,103270.28
2023-01-21T23:44:35.095Z,103252.00
2023-01-21T23:47:10.510Z,103234.59
2023-01-21T23:49:37.542Z,103268.84
2023-01-21T23:52:12.478Z,103272.47
2023-01-21T23:55:32.010Z,103281.31
2023-01-21T23:58:05.507Z,103253.38
